Time;durP1;ratioP1;P1;durP2;ratioP2;P2;SDS_P1;SDS_P2;PMS_P1;PMS_P2;Temp;Humidity;BMP_temperature;BMP_pressure;BME280_temperature;BME280_humidity;BME280_pressure;Samples;Min_cycle;Max_cycle;Signal;HPM_P1;HPM_P2
2022/01/28 00:04:48;;;;;;;10.18;6.00;;;3.80;99.90;;;;;;5013764;28;20157;-63
2022/01/28 00:07:14;;;;;;;10.77;7.55;;;3.80;99.90;;;;;;5012054;28;20481;-63
2022/01/28 00:09:41;;;;;;;13.57;8.13;;;3.70;99.90;;;;;;5011801;28;20057;-63
2022/01/28 00:12:09;;;;;;;12.60;8.63;;;3.70;99.90;;;;;;4994479;28;20069;-64
2022/01/28 00:14:48;;;;;;;12.18;8.27;;;3.70;99.90;;;;;;5019566;28;20073;-65
2022/01/28 00:18:19;;;;;;;12.95;6.95;;;3.70;99.90;;;;;;5000885;28;20055;-66
2022/01/28 00:38:55;;;;;;;11.05;6.25;;;3.50;99.90;;;;;;5012497;28;20049;-70
2022/01/28 00:41:22;;;;;;;10.45;5.35;;;3.50;99.90;;;;;;4993527;28;20580;-62
2022/01/28 00:43:49;;;;;;;8.82;5.43;;;3.40;99.90;;;;;;5022636;28;20060;-62
2022/01/28 00:46:16;;;;;;;9.13;6.22;;;3.40;99.90;;;;;;5019299;28;20054;-62
2022/01/28 00:48:45;;;;;;;13.35;7.38;;;3.40;99.90;;;;;;5011179;28;20044;-62
2022/01/28 00:51:12;;;;;;;11.10;7.18;;;3.40;99.90;;;;;;5009961;28;20054;-62
2022/01/28 00:53:39;;;;;;;15.27;7.22;;;3.40;99.90;;;;;;5012303;28;20060;-68
2022/01/28 00:56:06;;;;;;;8.98;5.82;;;3.30;99.90;;;;;;5010915;28;20050;-62
2022/01/28 00:58:33;;;;;;;18.00;7.10;;;3.30;99.90;;;;;;5041018;28;20056;-62
2022/01/28 01:01:00;;;;;;;14.77;7.40;;;3.30;99.90;;;;;;5027191;28;20045;-66
2022/01/28 01:03:27;;;;;;;13.93;6.72;;;3.30;99.90;;;;;;4997605;28;20046;-62
2022/01/28 01:05:54;;;;;;;18.90;11.45;;;3.20;99.90;;;;;;5029160;28;20048;-69
2022/01/28 01:08:21;;;;;;;14.68;9.75;;;3.20;99.90;;;;;;5007042;28;20136;-62
2022/01/28 01:10:50;;;;;;;13.65;9.15;;;3.20;99.90;;;;;;5012695;28;20054;-63
2022/01/28 01:13:17;;;;;;;12.70;8.37;;;3.10;99.90;;;;;;5011613;28;20137;-62
2022/01/28 01:15:48;;;;;;;12.50;7.47;;;3.20;99.90;;;;;;5007150;28;20306;-62
2022/01/28 01:18:27;;;;;;;13.38;6.80;;;3.20;99.90;;;;;;5000467;28;20045;-64
2022/01/28 01:21:02;;;;;;;11.00;7.00;;;3.20;99.90;;;;;;5011477;28;20213;-63
2022/01/28 01:23:35;;;;;;;10.73;5.82;;;3.10;99.90;;;;;;5011628;28;20057;-62
2022/01/28 01:28:36;;;;;;;9.98;5.65;;;3.10;99.90;;;;;;4993693;28;20046;-62
2022/01/28 01:31:05;;;;;;;9.50;6.25;;;3.10;99.90;;;;;;5016029;28;20046;-62
2022/01/28 01:33:38;;;;;;;9.18;5.72;;;3.00;99.90;;;;;;5009282;28;20898;-62
2022/01/28 01:36:05;;;;;;;11.82;5.57;;;3.00;99.90;;;;;;5011592;28;20084;-62
2022/01/28 01:38:36;;;;;;;9.48;6.25;;;3.00;99.90;;;;;;5023501;28;20056;-62
2022/01/28 01:41:06;;;;;;;9.00;5.25;;;3.00;99.90;;;;;;5015628;28;20508;-62
2022/01/28 01:54:07;;;;;;;9.73;5.85;;;2.90;99.90;;;;;;5012083;28;20060;-62
2022/01/28 01:56:34;;;;;;;10.38;5.50;;;2.90;99.90;;;;;;4995451;28;20738;-62
2022/01/28 01:59:01;;;;;;;12.50;6.65;;;2.90;99.90;;;;;;5014439;28;20396;-62
2022/01/28 02:01:28;;;;;;;11.50;7.25;;;2.90;99.90;;;;;;5008207;28;20049;-63
2022/01/28 02:03:56;;;;;;;9.68;6.00;;;2.80;99.90;;;;;;5014959;28;20045;-61
2022/01/28 02:06:23;;;;;;;14.13;7.13;;;2.80;99.90;;;;;;5026969;28;20125;-64
2022/01/28 02:08:50;;;;;;;10.40;5.72;;;2.80;99.90;;;;;;5014327;28;20050;-62
2022/01/28 02:11:17;;;;;;;10.77;6.18;;;2.80;99.90;;;;;;4998850;28;20423;-62
2022/01/28 02:13:51;;;;;;;12.60;6.93;;;2.80;99.90;;;;;;5016236;28;20488;-63
2022/01/28 02:16:19;;;;;;;10.98;5.35;;;2.80;99.90;;;;;;5019989;28;20045;-64
2022/01/28 02:18:46;;;;;;;10.15;5.65;;;2.80;99.90;;;;;;4996631;28;20057;-62
2022/01/28 02:21:15;;;;;;;13.80;5.93;;;2.80;99.90;;;;;;5016436;28;20048;-62
2022/01/28 02:23:45;;;;;;;11.25;5.93;;;2.80;99.90;;;;;;5016899;28;20077;-63
2022/01/28 02:26:15;;;;;;;7.97;5.25;;;2.70;99.90;;;;;;5000020;28;20057;-62
2022/01/28 02:28:44;;;;;;;;;;;2.70;99.90;;;;;;4996962;28;20046;-62
2022/01/28 02:31:12;;;;;;;11.13;4.97;;;2.60;99.90;;;;;;5044582;28;20399;-62
2022/01/28 02:33:39;;;;;;;8.43;5.80;;;2.60;99.90;;;;;;5013241;28;20462;-63
2022/01/28 02:36:07;;;;;;;10.98;5.85;;;2.60;99.90;;;;;;5018990;28;20059;-61
2022/01/28 02:38:35;;;;;;;9.82;5.80;;;2.60;99.90;;;;;;5030691;28;20095;-64
2022/01/28 02:41:04;;;;;;;9.48;5.82;;;2.60;99.90;;;;;;5012021;28;20068;-61
2022/01/28 02:43:42;;;;;;;11.50;5.50;;;2.60;99.90;;;;;;4999334;28;20045;-63
2022/01/28 02:46:12;;;;;;;10.10;4.90;;;2.50;99.90;;;;;;5007390;28;20046;-62
2022/01/28 02:48:49;;;;;;;10.68;5.18;;;2.50;99.90;;;;;;5015502;28;20041;-61
2022/01/28 02:51:19;;;;;;;9.88;5.63;;;2.50;99.90;;;;;;5016840;28;20054;-63
2022/01/28 02:53:48;;;;;;;9.85;5.20;;;2.40;99.90;;;;;;5011566;28;20037;-70
2022/01/28 02:56:20;;;;;;;11.85;5.55;;;2.40;99.90;;;;;;5013031;28;20393;-62
2022/01/28 02:58:48;;;;;;;12.75;5.88;;;2.40;99.90;;;;;;5006510;28;20461;-62
2022/01/28 03:01:16;;;;;;;10.07;5.38;;;2.50;99.90;;;;;;4992313;28;20068;-64
2022/01/28 03:03:44;;;;;;;10.15;5.93;;;2.50;99.90;;;;;;5004530;28;20049;-63
2022/01/28 03:06:12;;;;;;;11.20;5.85;;;2.50;99.90;;;;;;5014307;28;20045;-62
2022/01/28 03:08:48;;;;;;;11.40;4.60;;;2.60;99.90;;;;;;5014329;28;20042;-62
2022/01/28 03:19:41;;;;;;;11.98;5.63;;;2.40;99.90;;;;;;5016380;28;20045;-64
2022/01/28 03:22:08;;;;;;;11.75;5.88;;;2.40;99.90;;;;;;5017047;28;20376;-62
2022/01/28 03:24:35;;;;;;;9.43;4.70;;;2.30;99.90;;;;;;5011748;28;20049;-62
2022/01/28 03:27:09;;;;;;;12.48;5.60;;;2.30;99.90;;;;;;5008629;28;20045;-62
2022/01/28 03:29:36;;;;;;;6.85;4.38;;;2.30;99.90;;;;;;5013105;28;20053;-62
2022/01/28 03:32:03;;;;;;;9.40;4.68;;;2.20;99.90;;;;;;5010406;28;20050;-62
2022/01/28 03:34:30;;;;;;;10.20;4.93;;;2.20;99.90;;;;;;4988281;28;20052;-62
2022/01/28 03:36:57;;;;;;;10.32;6.60;;;2.20;99.90;;;;;;5015689;28;20064;-61
2022/01/28 03:39:24;;;;;;;7.85;4.68;;;2.20;99.90;;;;;;5011724;28;20045;-62
2022/01/28 03:41:51;;;;;;;9.88;5.97;;;2.20;99.90;;;;;;5014060;28;20130;-68
2022/01/28 03:44:18;;;;;;;10.10;6.10;;;2.20;99.90;;;;;;5011635;28;20050;-62
2022/01/28 03:46:45;;;;;;;11.88;5.32;;;2.20;99.90;;;;;;4994837;28;20042;-61
2022/01/28 03:49:12;;;;;;;8.88;5.38;;;2.20;99.90;;;;;;5016758;28;20060;-61
2022/01/28 03:51:39;;;;;;;11.02;5.22;;;2.10;99.90;;;;;;5024415;28;20041;-62
2022/01/28 03:54:06;;;;;;;8.60;5.28;;;2.20;99.90;;;;;;5020219;28;20066;-62
2022/01/28 03:56:33;;;;;;;9.00;4.60;;;2.10;99.90;;;;;;5012915;28;20482;-62
2022/01/28 03:59:00;;;;;;;8.10;5.00;;;2.10;99.90;;;;;;5013380;28;20042;-61
2022/01/28 04:01:32;;;;;;;9.77;5.22;;;2.20;99.90;;;;;;5006963;28;20069;-61
2022/01/28 04:04:32;;;;;;;8.07;4.97;;;2.20;99.90;;;;;;5005270;28;20396;-62
2022/01/28 04:12:20;;;;;;;7.75;4.88;;;2.20;99.90;;;;;;4998556;28;20414;-61
2022/01/28 04:15:19;;;;;;;8.48;4.97;;;2.10;99.90;;;;;;5022085;28;20055;-62
2022/01/28 04:17:47;;;;;;;9.27;5.13;;;2.10;99.90;;;;;;4999504;28;20056;-65
2022/01/28 04:20:15;;;;;;;8.57;4.65;;;2.10;99.90;;;;;;5018703;28;20042;-63
2022/01/28 04:22:42;;;;;;;6.97;4.50;;;2.00;99.90;;;;;;5001601;28;20046;-62
2022/01/28 04:25:09;;;;;;;7.88;5.10;;;2.10;99.90;;;;;;5023064;28;20400;-61
2022/01/28 04:27:36;;;;;;;9.48;4.65;;;2.00;99.90;;;;;;4977815;28;20077;-62
2022/01/28 04:30:03;;;;;;;8.93;4.65;;;2.00;99.90;;;;;;5025458;28;20053;-62
2022/01/28 04:32:31;;;;;;;8.68;5.50;;;2.00;99.90;;;;;;5001009;28;20149;-61
2022/01/28 04:34:59;;;;;;;7.10;4.65;;;2.00;99.90;;;;;;5001733;28;20038;-61
2022/01/28 04:40:04;;;;;;;7.57;4.47;;;2.00;99.90;;;;;;4998884;28;20049;-61
2022/01/28 04:56:44;;;;;;;6.93;4.60;;;2.00;99.90;;;;;;5011840;28;20077;-61
2022/01/28 05:17:16;;;;;;;8.13;3.70;;;1.90;99.90;;;;;;5012638;28;20420;-62
2022/01/28 05:26:02;;;;;;;9.52;4.38;;;1.80;99.90;;;;;;5002307;28;20065;-62
2022/01/28 05:27:56;;;;;;;10.85;4.10;;;1.80;99.90;;;;;;5004199;28;20056;-61
2022/01/28 05:30:23;;;;;;;10.25;4.72;;;1.80;99.90;;;;;;5010674;28;20054;-61
2022/01/28 05:32:50;;;;;;;7.43;4.85;;;1.80;99.90;;;;;;5010255;28;20050;-65
2022/01/28 05:35:17;;;;;;;9.57;4.80;;;1.90;99.90;;;;;;5011792;28;20069;-61
2022/01/28 05:37:43;;;;;;;8.48;4.90;;;1.90;99.90;;;;;;5010377;28;20069;-61
2022/01/28 05:40:11;;;;;;;10.82;5.15;;;1.90;99.90;;;;;;5009547;28;20042;-62
2022/01/28 05:42:38;;;;;;;8.50;4.68;;;1.90;99.90;;;;;;5011413;28;20046;-61
2022/01/28 05:45:05;;;;;;;8.85;5.75;;;1.90;99.90;;;;;;5009768;28;20050;-62
2022/01/28 05:47:35;;;;;;;7.15;4.63;;;1.90;99.90;;;;;;5009758;28;20045;-62
2022/01/28 05:50:04;;;;;;;8.52;3.92;;;1.80;99.90;;;;;;5010324;28;20053;-61
2022/01/28 05:52:31;;;;;;;7.30;4.72;;;1.80;99.90;;;;;;5010149;28;20152;-64
2022/01/28 05:54:59;;;;;;;10.50;4.90;;;1.80;99.90;;;;;;5011141;28;20046;-61
2022/01/28 05:57:26;;;;;;;7.60;4.68;;;1.80;99.90;;;;;;5009424;28;20046;-62
2022/01/28 05:59:52;;;;;;;6.78;4.25;;;1.80;99.90;;;;;;5011190;28;20050;-61
2022/01/28 06:02:19;;;;;;;7.63;4.75;;;1.80;99.90;;;;;;5011051;28;20050;-61
2022/01/28 06:04:47;;;;;;;7.55;4.68;;;1.80;99.90;;;;;;5009780;28;20113;-62
2022/01/28 06:07:14;;;;;;;7.40;3.78;;;1.80;99.90;;;;;;5010884;28;20057;-63
2022/01/28 06:09:41;;;;;;;7.90;5.38;;;1.70;99.90;;;;;;5009982;28;20141;-61
2022/01/28 06:12:08;;;;;;;8.90;4.60;;;1.80;99.90;;;;;;5009751;28;20072;-62
2022/01/28 06:14:35;;;;;;;8.20;4.38;;;1.80;99.90;;;;;;5010588;28;20136;-62
2022/01/28 06:17:02;;;;;;;7.80;4.32;;;1.80;99.90;;;;;;5009896;28;20042;-61
2022/01/28 06:19:29;;;;;;;7.88;4.35;;;1.80;99.90;;;;;;5010626;28;20050;-62
2022/01/28 06:21:56;;;;;;;6.68;4.05;;;1.80;99.90;;;;;;5011852;28;20409;-62
2022/01/28 06:24:23;;;;;;;7.85;4.50;;;1.80;99.90;;;;;;5013471;28;20050;-62
2022/01/28 06:26:50;;;;;;;6.63;4.20;;;1.80;99.90;;;;;;5012820;28;20049;-61
2022/01/28 06:29:17;;;;;;;8.90;4.30;;;1.80;99.90;;;;;;5013238;28;20076;-61
2022/01/28 06:31:44;;;;;;;8.15;4.47;;;1.70;99.90;;;;;;5012090;28;20046;-66
2022/01/28 06:34:11;;;;;;;7.68;4.60;;;1.80;99.90;;;;;;5014428;28;20077;-62
2022/01/28 06:36:38;;;;;;;15.75;6.00;;;1.80;99.90;;;;;;5012459;28;20049;-63
2022/01/28 06:39:05;;;;;;;10.23;4.47;;;1.70;99.90;;;;;;5013186;28;20049;-62
2022/01/28 06:41:32;;;;;;;10.57;6.68;;;1.70;99.90;;;;;;4996035;28;20524;-61
2022/01/28 06:43:59;;;;;;;11.18;4.45;;;1.70;99.90;;;;;;5012241;28;20042;-61
2022/01/28 06:46:26;;;;;;;8.55;5.50;;;1.70;99.90;;;;;;5008512;28;20063;-62
2022/01/28 06:48:53;;;;;;;9.95;5.30;;;1.70;99.90;;;;;;5013589;28;20067;-62
2022/01/28 06:51:21;;;;;;;9.20;5.85;;;1.70;99.90;;;;;;5011998;28;20477;-62
2022/01/28 06:53:48;;;;;;;12.00;5.80;;;1.70;99.90;;;;;;5034744;28;20067;-62
2022/01/28 06:56:16;;;;;;;10.88;5.68;;;1.70;99.90;;;;;;5016419;28;20429;-62
2022/01/28 06:58:42;;;;;;;8.73;5.50;;;1.70;99.90;;;;;;5017323;28;20038;-61
2022/01/28 07:01:09;;;;;;;8.43;5.95;;;1.70;99.90;;;;;;5036129;28;20052;-61
2022/01/28 07:03:37;;;;;;;9.40;5.85;;;1.70;99.90;;;;;;5018286;28;20084;-62
2022/01/28 07:06:04;;;;;;;14.82;6.85;;;1.80;99.90;;;;;;5038960;28;20404;-64
2022/01/28 07:08:31;;;;;;;10.27;6.70;;;1.80;99.90;;;;;;5038251;28;20063;-62
2022/01/28 07:10:58;;;;;;;10.35;6.47;;;1.90;99.90;;;;;;5014824;28;20076;-61
2022/01/28 07:13:25;;;;;;;11.23;6.30;;;1.90;99.90;;;;;;5035222;28;20508;-62
2022/01/28 07:15:52;;;;;;;11.48;6.43;;;1.90;99.90;;;;;;5039246;28;20133;-61
2022/01/28 07:18:20;;;;;;;10.60;5.65;;;2.00;99.90;;;;;;5038995;28;20045;-62
2022/01/28 07:20:47;;;;;;;7.15;5.43;;;1.90;99.90;;;;;;4985761;28;20073;-61
2022/01/28 07:23:14;;;;;;;11.95;6.28;;;1.90;99.90;;;;;;5026948;28;20056;-61
2022/01/28 07:25:41;;;;;;;562.58;388.48;;;1.90;99.90;;;;;;5037290;28;20041;-61
2022/01/28 07:28:08;;;;;;;224.95;145.50;;;1.90;99.90;;;;;;5015672;28;20046;-61
2022/01/28 07:30:35;;;;;;;218.80;145.27;;;2.00;99.90;;;;;;5035682;28;20045;-61
2022/01/28 07:33:05;;;;;;;145.68;94.57;;;2.00;99.90;;;;;;5038907;28;20079;-61
2022/01/28 07:35:33;;;;;;;477.20;350.25;;;2.00;99.90;;;;;;5022988;28;20049;-63
2022/01/28 07:38:00;;;;;;;79.63;56.13;;;2.00;99.90;;;;;;5035865;28;20046;-61
2022/01/28 07:40:27;;;;;;;49.33;34.78;;;2.10;99.90;;;;;;5031709;28;20379;-62
2022/01/28 07:42:54;;;;;;;32.85;18.83;;;2.10;99.90;;;;;;5034068;28;20045;-61
2022/01/28 07:45:21;;;;;;;16.98;12.02;;;2.10;99.90;;;;;;5014701;28;20083;-66
2022/01/28 07:47:48;;;;;;;34.75;18.02;;;2.10;99.90;;;;;;5013321;28;20148;-64
2022/01/28 07:50:15;;;;;;;411.20;257.70;;;2.10;99.90;;;;;;5011418;28;20045;-69
2022/01/28 07:52:42;;;;;;;76.75;46.75;;;2.20;99.90;;;;;;5013666;28;20461;-62
2022/01/28 07:55:13;;;;;;;33.35;19.60;;;2.20;99.90;;;;;;5014325;28;20041;-62
2022/01/28 07:57:40;;;;;;;25.23;14.77;;;2.30;99.90;;;;;;5012604;28;20062;-69
2022/01/28 08:00:08;;;;;;;18.73;10.57;;;2.30;99.90;;;;;;5012924;28;20046;-63
2022/01/28 08:02:35;;;;;;;12.45;7.63;;;2.40;99.90;;;;;;5010954;28;20060;-63
2022/01/28 08:05:03;;;;;;;10.75;6.15;;;2.40;99.90;;;;;;4994213;28;20457;-72
2022/01/28 08:07:30;;;;;;;15.90;6.93;;;2.50;99.90;;;;;;5001976;28;20086;-66
2022/01/28 08:09:57;;;;;;;11.68;6.32;;;2.50;99.90;;;;;;5009389;28;20042;-63
2022/01/28 08:12:24;;;;;;;9.27;5.97;;;2.50;99.90;;;;;;5012863;28;20124;-65
2022/01/28 08:14:51;;;;;;;8.73;5.25;;;2.60;99.90;;;;;;5010872;28;20132;-64
2022/01/28 08:17:18;;;;;;;9.15;5.50;;;2.70;99.90;;;;;;5011681;28;20061;-69
2022/01/28 08:19:45;;;;;;;9.68;5.22;;;2.70;99.90;;;;;;5011339;28;20052;-68
2022/01/28 08:22:12;;;;;;;10.48;5.32;;;2.80;99.90;;;;;;5011044;28;20507;-66
2022/01/28 08:24:39;;;;;;;12.88;5.93;;;2.90;99.90;;;;;;5011207;28;20050;-67
2022/01/28 08:27:06;;;;;;;9.20;4.90;;;2.90;99.90;;;;;;5011210;28;20129;-71
2022/01/28 08:29:33;;;;;;;8.25;5.88;;;2.90;99.90;;;;;;5012454;28;20132;-66
2022/01/28 08:32:00;;;;;;;13.23;6.15;;;3.00;99.90;;;;;;5010992;28;20048;-68
2022/01/28 08:34:27;;;;;;;14.00;9.80;;;3.00;99.90;;;;;;5010557;28;20050;-70
2022/01/28 08:36:54;;;;;;;310.33;192.38;;;3.10;99.90;;;;;;5010961;28;20485;-69
2022/01/28 08:39:22;;;;;;;84.65;52.95;;;3.10;99.90;;;;;;5014019;28;20056;-66
2022/01/28 08:41:49;;;;;;;40.30;26.35;;;3.20;99.90;;;;;;5025158;28;20056;-72
2022/01/28 08:44:17;;;;;;;20.92;14.80;;;3.20;99.90;;;;;;5011176;28;20140;-68
2022/01/28 08:46:44;;;;;;;16.33;11.65;;;3.30;99.90;;;;;;5011668;28;20065;-67
2022/01/28 08:49:11;;;;;;;13.23;8.52;;;3.40;99.90;;;;;;5018639;28;20053;-67
2022/01/28 08:51:39;;;;;;;11.88;7.90;;;3.50;99.90;;;;;;5021847;28;20133;-67
2022/01/28 08:54:06;;;;;;;11.30;7.13;;;3.50;99.90;;;;;;5039145;28;20048;-69
2022/01/28 08:56:33;;;;;;;17.48;8.07;;;3.50;99.90;;;;;;5052332;28;20570;-68
2022/01/28 08:59:14;;;;;;;9.80;5.22;;;3.60;99.90;;;;;;5036558;28;20049;-68
2022/01/28 09:01:41;;;;;;;7.68;5.78;;;3.70;99.90;;;;;;5033993;28;20473;-67
2022/01/28 09:04:08;;;;;;;9.73;5.20;;;3.70;99.90;;;;;;5050958;28;20088;-69
2022/01/28 09:06:35;;;;;;;11.93;5.50;;;3.80;99.90;;;;;;5050879;28;20132;-71
2022/01/28 09:09:03;;;;;;;10.07;4.57;;;3.80;99.90;;;;;;5030215;28;20404;-69
2022/01/28 09:13:57;;;;;;;9.45;4.80;;;4.00;99.90;;;;;;5011746;28;20053;-68
2022/01/28 09:16:24;;;;;;;10.05;5.05;;;4.00;99.90;;;;;;5010136;28;20049;-68
2022/01/28 09:18:51;;;;;;;8.60;4.43;;;4.00;99.90;;;;;;4997949;28;20124;-68
2022/01/28 09:21:19;;;;;;;8.73;4.53;;;4.10;99.90;;;;;;5031780;28;20060;-68
2022/01/28 09:23:49;;;;;;;15.27;5.00;;;4.20;99.90;;;;;;5013537;28;20057;-68
2022/01/28 09:26:16;;;;;;;9.52;5.20;;;4.20;99.90;;;;;;5014074;28;20061;-68
2022/01/28 09:28:43;;;;;;;7.75;4.10;;;4.30;99.90;;;;;;5013045;28;20053;-69
2022/01/28 09:31:10;;;;;;;8.32;4.07;;;4.30;99.90;;;;;;5030987;28;20055;-69
2022/01/28 09:33:37;;;;;;;8.10;4.53;;;4.40;99.90;;;;;;5029770;28;20046;-68
2022/01/28 09:36:06;;;;;;;16.35;5.40;;;4.40;99.90;;;;;;5031433;28;20453;-68
2022/01/28 09:38:33;;;;;;;8.48;4.47;;;4.50;99.90;;;;;;5013869;28;20572;-68
2022/01/28 09:41:05;;;;;;;8.50;5.15;;;4.60;99.90;;;;;;5019618;28;20477;-69
2022/01/28 09:43:32;;;;;;;8.15;4.43;;;4.70;99.90;;;;;;5010314;28;20136;-69
2022/01/28 09:46:00;;;;;;;9.30;5.90;;;4.70;99.90;;;;;;5022899;28;20517;-68
2022/01/28 09:48:27;;;;;;;10.20;5.45;;;4.90;99.90;;;;;;5013104;28;20103;-68
2022/01/28 09:50:57;;;;;;;11.70;5.20;;;5.00;99.90;;;;;;4992825;28;20070;-68
2022/01/28 09:53:24;;;;;;;11.10;4.95;;;5.10;99.90;;;;;;5010869;28;20409;-68
2022/01/28 09:55:52;;;;;;;9.32;5.15;;;5.20;99.90;;;;;;4994323;28;20382;-68
2022/01/28 09:58:19;;;;;;;9.25;6.20;;;5.30;99.90;;;;;;5012518;28;20485;-68
2022/01/28 10:00:46;;;;;;;8.57;5.80;;;5.40;99.90;;;;;;4987712;28;20047;-69
2022/01/28 10:03:14;;;;;;;11.98;6.32;;;5.50;99.90;;;;;;5003305;28;20129;-68
2022/01/28 10:05:43;;;;;;;9.95;5.55;;;5.50;99.90;;;;;;5005034;28;20082;-69
2022/01/28 10:08:15;;;;;;;10.80;5.97;;;5.60;99.90;;;;;;5019572;28;20053;-68
2022/01/28 10:10:47;;;;;;;10.30;7.03;;;5.70;99.90;;;;;;5019007;28;20089;-71
2022/01/28 10:16:10;;;;;;;11.20;7.10;;;5.90;99.90;;;;;;5009664;28;20046;-69
2022/01/28 10:18:56;;;;;;;13.90;7.03;;;6.00;99.90;;;;;;5003991;28;20046;-68
2022/01/28 10:21:36;;;;;;;10.18;6.55;;;6.10;99.90;;;;;;5009983;28;20049;-68
2022/01/28 10:24:05;;;;;;;11.30;6.90;;;6.30;99.90;;;;;;4977483;28;20773;-69
2022/01/28 10:26:45;;;;;;;59.45;44.83;;;6.40;99.90;;;;;;4978106;28;20494;-69
2022/01/28 10:29:15;;;;;;;38.70;31.60;;;6.50;99.90;;;;;;4977925;28;20137;-68
2022/01/28 10:31:47;;;;;;;117.75;94.47;;;6.60;99.90;;;;;;5003657;28;20050;-69
2022/01/28 10:34:19;;;;;;;40.63;33.15;;;6.70;99.90;;;;;;5013575;28;20100;-68
2022/01/28 10:36:48;;;;;;;18.23;9.23;;;6.80;99.90;;;;;;5005596;28;20133;-69
2022/01/28 10:39:17;;;;;;;11.43;6.05;;;6.90;99.90;;;;;;5015026;28;20108;-70
2022/01/28 10:42:11;;;;;;;11.30;6.65;;;6.90;99.90;;;;;;5015060;28;20050;-68
2022/01/28 10:44:55;;;;;;;9.82;5.38;;;7.00;99.90;;;;;;4993053;28;20050;-68
2022/01/28 10:47:37;;;;;;;8.05;4.88;;;7.00;99.90;;;;;;5013607;28;20050;-67
2022/01/28 10:50:26;;;;;;;8.23;4.40;;;7.10;99.90;;;;;;5013408;28;20066;-68
2022/01/28 10:53:12;;;;;;;11.57;4.32;;;7.20;99.90;;;;;;5013998;28;20497;-68
2022/01/28 10:55:40;;;;;;;9.85;4.32;;;7.20;99.90;;;;;;4996692;28;20132;-68
2022/01/28 10:58:13;;;;;;;9.90;3.63;;;7.20;99.90;;;;;;4996902;28;20132;-68
2022/01/28 11:00:45;;;;;;;8.98;3.45;;;7.30;99.90;;;;;;4996753;28;20504;-67
2022/01/28 11:03:13;;;;;;;11.65;4.18;;;7.30;99.90;;;;;;4996957;28;20121;-67
2022/01/28 11:05:41;;;;;;;8.23;3.88;;;7.40;99.90;;;;;;4996934;28;20455;-68
2022/01/28 11:08:09;;;;;;;6.18;2.88;;;7.50;99.90;;;;;;4996627;28;20054;-67
2022/01/28 11:10:36;;;;;;;11.75;4.93;;;7.50;99.90;;;;;;5012788;28;20082;-67
2022/01/28 11:13:03;;;;;;;9.57;3.97;;;7.60;99.90;;;;;;5013422;28;20046;-66
2022/01/28 11:15:31;;;;;;;8.85;4.07;;;7.70;99.90;;;;;;5011986;28;20048;-65
2022/01/28 11:17:59;;;;;;;153.00;110.20;;;7.80;99.90;;;;;;5000311;28;20058;-68
2022/01/28 11:20:41;;;;;;;155.68;108.75;;;7.90;99.90;;;;;;4998716;28;20401;-68
2022/01/28 11:23:22;;;;;;;19.15;12.98;;;8.00;99.90;;;;;;4986146;28;20207;-66
2022/01/28 11:26:13;;;;;;;12.18;5.18;;;8.10;99.90;;;;;;4977427;28;20060;-65
2022/01/28 11:28:46;;;;;;;9.50;4.80;;;8.10;99.90;;;;;;4998224;28;20494;-66
2022/01/28 11:31:13;;;;;;;7.95;4.75;;;8.10;99.90;;;;;;5000876;28;20105;-68
2022/01/28 11:33:50;;;;;;;7.50;3.25;;;8.20;99.90;;;;;;4992353;28;20053;-66
2022/01/28 11:36:31;;;;;;;5.50;3.15;;;8.20;99.90;;;;;;4977023;28;20137;-65
2022/01/28 11:39:07;;;;;;;8.25;3.58;;;8.30;99.90;;;;;;5004507;28;20050;-65
2022/01/28 11:41:35;;;;;;;5.40;3.00;;;8.30;99.90;;;;;;5013217;28;20408;-66
2022/01/28 11:44:02;;;;;;;10.23;3.72;;;8.40;99.90;;;;;;5006647;28;20058;-67
2022/01/28 11:46:39;;;;;;;7.60;2.67;;;8.40;99.90;;;;;;4999269;28;20061;-65
2022/01/28 11:49:07;;;;;;;10.32;3.35;;;8.60;99.90;;;;;;5015610;28;20085;-66
2022/01/28 11:51:36;;;;;;;9.98;3.42;;;8.60;99.90;;;;;;5011622;28;20052;-64
2022/01/28 11:54:07;;;;;;;6.20;3.75;;;8.60;99.90;;;;;;5023596;28;20046;-64
2022/01/28 11:56:58;;;;;;;7.15;3.28;;;8.70;99.90;;;;;;5014590;28;20049;-66
2022/01/28 11:59:26;;;;;;;11.00;3.92;;;8.80;99.90;;;;;;5010043;28;20129;-69
2022/01/28 12:01:53;;;;;;;8.15;3.65;;;8.80;99.90;;;;;;5011583;28;20137;-65
2022/01/28 12:04:30;;;;;;;7.20;3.45;;;8.90;99.90;;;;;;5010751;28;20092;-65
2022/01/28 12:07:10;;;;;;;9.00;4.00;;;8.90;99.90;;;;;;4996019;28;20092;-64
2022/01/28 12:09:38;;;;;;;351.58;280.45;;;9.00;99.90;;;;;;5012914;28;20041;-64
2022/01/28 12:12:10;;;;;;;79.93;59.53;;;9.10;99.90;;;;;;5014493;28;20592;-67
2022/01/28 12:14:53;;;;;;;17.98;9.27;;;9.20;99.90;;;;;;5020308;28;20073;-63
2022/01/28 12:17:30;;;;;;;12.02;4.75;;;9.20;99.90;;;;;;5007833;28;20413;-64
2022/01/28 12:20:15;;;;;;;8.32;3.45;;;9.30;97.60;;;;;;5022025;28;20456;-70
2022/01/28 12:23:10;;;;;;;8.30;3.72;;;9.30;99.80;;;;;;5010289;28;20052;-69
2022/01/28 12:25:43;;;;;;;6.72;2.70;;;9.40;97.50;;;;;;4993424;28;20126;-66
2022/01/28 12:28:22;;;;;;;5.30;3.00;;;9.40;98.40;;;;;;5003363;28;20405;-69
2022/01/28 12:30:49;;;;;;;6.28;2.88;;;9.40;96.50;;;;;;5020237;28;20061;-66
2022/01/28 12:33:23;;;;;;;5.95;2.80;;;9.40;96.70;;;;;;5024502;28;20054;-69
2022/01/28 12:35:52;;;;;;;7.00;3.35;;;9.50;94.80;;;;;;4988784;28;20489;-66
2022/01/28 12:38:25;;;;;;;10.23;2.88;;;9.50;94.90;;;;;;5013061;28;20059;-69
2022/01/28 12:40:54;;;;;;;9.70;3.30;;;9.50;94.20;;;;;;5010922;28;20125;-73
2022/01/28 12:43:22;;;;;;;8.00;2.47;;;9.50;94.60;;;;;;5018929;28;20416;-70
2022/01/28 12:46:07;;;;;;;8.98;3.30;;;9.50;95.20;;;;;;5012451;28;20052;-62
2022/01/28 12:48:34;;;;;;;85.78;65.60;;;9.60;95.60;;;;;;4977859;28;20073;-63
2022/01/28 12:51:03;;;;;;;49.75;41.30;;;9.60;94.10;;;;;;5021484;28;20045;-63
2022/01/28 12:53:45;;;;;;;62.90;47.15;;;9.70;94.10;;;;;;5010461;28;20058;-65
2022/01/28 12:56:13;;;;;;;50.22;35.42;;;9.70;93.60;;;;;;5010324;28;20053;-65
2022/01/28 12:58:47;;;;;;;51.55;33.83;;;9.80;94.70;;;;;;5008285;28;20038;-67
2022/01/28 13:01:16;;;;;;;54.42;37.20;;;9.90;93.00;;;;;;5009868;28;20060;-63
2022/01/28 13:03:50;;;;;;;;;;;9.90;92.40;;;;;;5021218;28;20165;-64
2022/01/28 13:06:59;;;;;;;14.23;7.10;;;9.90;91.10;;;;;;5013208;28;20467;-63
2022/01/28 13:09:15;;;;;;;11.48;4.78;;;9.90;91.20;;;;;;5026493;28;20041;-66
2022/01/28 13:11:57;;;;;;;7.85;3.63;;;9.90;92.60;;;;;;5007239;28;20076;-64
2022/01/28 13:14:29;;;;;;;8.20;3.83;;;9.90;90.60;;;;;;5013711;28;20125;-68
2022/01/28 13:17:02;;;;;;;8.73;3.90;;;9.90;91.60;;;;;;4959144;28;20145;-66
2022/01/28 13:19:29;;;;;;;6.75;4.05;;;9.80;92.00;;;;;;5008184;28;20545;-65
2022/01/28 13:21:56;;;;;;;10.15;4.05;;;9.80;91.50;;;;;;5010892;28;20073;-63
2022/01/28 13:24:25;;;;;;;7.28;3.65;;;9.80;91.70;;;;;;4992749;28;20066;-64
2022/01/28 13:27:01;;;;;;;8.10;3.22;;;9.80;91.70;;;;;;5009794;28;20040;-63
2022/01/28 13:29:32;;;;;;;7.78;3.38;;;9.80;91.70;;;;;;4991317;28;20562;-63
2022/01/28 13:32:07;;;;;;;8.98;4.25;;;9.70;91.60;;;;;;5030125;28;20061;-63
2022/01/28 13:34:57;;;;;;;8.10;3.60;;;9.70;92.70;;;;;;4996168;28;20520;-62
2022/01/28 13:37:43;;;;;;;87.50;77.88;;;9.60;91.90;;;;;;5008751;28;20050;-65
2022/01/28 13:40:31;;;;;;;301.42;243.88;;;9.70;92.50;;;;;;5027506;28;20050;-63
2022/01/28 13:43:05;;;;;;;23.92;13.60;;;9.70;92.50;;;;;;5014311;28;20128;-66
2022/01/28 13:45:51;;;;;;;8.70;5.72;;;9.70;93.40;;;;;;5013347;28;20481;-67
2022/01/28 13:48:20;;;;;;;9.55;5.78;;;9.70;93.90;;;;;;4997042;28;20817;-69
2022/01/28 13:50:49;;;;;;;10.05;5.18;;;9.70;94.10;;;;;;5028810;28;20141;-64
2022/01/28 13:56:01;;;;;;;12.23;5.28;;;9.70;94.10;;;;;;5028003;28;20477;-64
2022/01/28 13:58:28;;;;;;;8.25;4.90;;;9.80;94.40;;;;;;5013541;28;20129;-63
2022/01/28 14:00:56;;;;;;;9.43;4.82;;;9.80;94.60;;;;;;5022931;28;20053;-64
2022/01/28 14:03:27;;;;;;;11.13;5.35;;;9.80;94.40;;;;;;5049721;28;20041;-63
2022/01/28 14:06:01;;;;;;;11.65;5.47;;;9.80;94.70;;;;;;5005690;28;20050;-61
2022/01/28 14:08:51;;;;;;;9.25;4.95;;;9.80;94.00;;;;;;5002634;28;20056;-62
2022/01/28 14:11:28;;;;;;;8.70;3.92;;;9.90;94.80;;;;;;5034241;28;20461;-64
2022/01/28 14:14:28;;;;;;;9.00;5.35;;;9.90;95.30;;;;;;5033765;28;20084;-63
2022/01/28 14:17:03;;;;;;;10.13;4.85;;;9.90;95.80;;;;;;5034755;28;20057;-66
2022/01/28 14:19:32;;;;;;;10.80;5.10;;;9.90;95.30;;;;;;5034853;28;20049;-65
2022/01/28 14:21:59;;;;;;;12.17;4.10;;;10.00;95.90;;;;;;5008635;28;20435;-65
2022/01/28 14:24:46;;;;;;;14.60;7.13;;;10.00;95.60;;;;;;5000565;28;20061;-66
2022/01/28 14:27:44;;;;;;;9.57;4.63;;;10.10;95.80;;;;;;5028236;28;20057;-65
2022/01/28 14:30:05;;;;;;;12.23;4.68;;;10.00;95.80;;;;;;5033901;28;20059;-71
2022/01/28 14:32:34;;;;;;;14.07;7.57;;;10.00;96.00;;;;;;5023872;28;20073;-65
2022/01/28 14:35:03;;;;;;;13.18;5.60;;;10.00;96.10;;;;;;5033981;28;20508;-64
2022/01/28 14:37:37;;;;;;;10.98;4.07;;;9.90;96.20;;;;;;5034399;28;20053;-65
2022/01/28 14:40:12;;;;;;;9.13;4.50;;;9.90;96.50;;;;;;5020017;28;20124;-68
2022/01/28 14:42:39;;;;;;;13.00;4.72;;;9.90;97.20;;;;;;5033568;28;20060;-69
2022/01/28 14:45:06;;;;;;;13.60;5.55;;;9.80;97.80;;;;;;5029208;28;20045;-68